sensor_id;sensor_type;location;lat;lon;timestamp;pressure;altitude;pressure_sealevel;temperature;humidity
7026;BME280;3554;42.132;24.786;2023-08-31T00:00:40;98467.63;;;24.78;100.00
7026;BME280;3554;42.132;24.786;2023-08-31T00:03:07;98477.78;;;24.90;100.00
7026;BME280;3554;42.132;24.786;2023-08-31T00:05:37;98483.94;;;24.91;100.00
7026;BME280;3554;42.132;24.786;2023-08-31T00:08:05;98490.53;;;24.80;100.00
7026;BME280;3554;42.132;24.786;2023-08-31T00:10:33;98488.69;;;24.81;100.00
7026;BME280;3554;42.132;24.786;2023-08-31T00:13:00;98494.53;;;24.84;100.00
7026;BME280;3554;42.132;24.786;2023-08-31T00:15:29;98493.50;;;24.85;100.00
7026;BME280;3554;42.132;24.786;2023-08-31T00:17:58;98484.50;;;24.78;100.00
7026;BME280;3554;42.132;24.786;2023-08-31T00:20:25;98502.25;;;24.71;100.00
7026;BME280;3554;42.132;24.786;2023-08-31T00:22:54;98495.75;;;24.74;100.00
7026;BME280;3554;42.132;24.786;2023-08-31T00:25:21;98480.19;;;24.61;100.00
7026;BME280;3554;42.132;24.786;2023-08-31T00:27:48;98461.63;;;24.52;100.00
7026;BME280;3554;42.132;24.786;2023-08-31T00:30:15;98493.53;;;24.69;100.00
7026;BME280;3554;42.132;24.786;2023-08-31T00:32:43;98506.78;;;24.63;100.00
7026;BME280;3554;42.132;24.786;2023-08-31T00:35:12;98464.34;;;24.44;100.00
7026;BME280;3554;42.132;24.786;2023-08-31T00:37:39;98504.09;;;24.63;100.00
7026;BME280;3554;42.132;24.786;2023-08-31T00:40:07;98507.63;;;24.63;100.00
7026;BME280;3554;42.132;24.786;2023-08-31T00:42:37;98512.66;;;24.58;100.00
7026;BME280;3554;42.132;24.786;2023-08-31T00:45:04;98478.22;;;24.39;100.00
7026;BME280;3554;42.132;24.786;2023-08-31T00:47:32;98476.75;;;24.36;100.00
7026;BME280;3554;42.132;24.786;2023-08-31T00:50:00;98444.31;;;24.23;100.00
7026;BME280;3554;42.132;24.786;2023-08-31T00:52:28;98510.97;;;24.57;100.00
7026;BME280;3554;42.132;24.786;2023-08-31T00:54:55;98515.47;;;24.65;100.00
7026;BME280;3554;42.132;24.786;2023-08-31T00:57:22;98505.44;;;24.59;100.00
7026;BME280;3554;42.132;24.786;2023-08-31T00:59:48;98514.63;;;24.64;100.00
7026;BME280;3554;42.132;24.786;2023-08-31T01:02:19;98517.66;;;24.61;100.00
7026;BME280;3554;42.132;24.786;2023-08-31T01:04:53;98517.03;;;24.51;100.00
7026;BME280;3554;42.132;24.786;2023-08-31T01:07:38;98509.63;;;24.53;100.00
7026;BME280;3554;42.132;24.786;2023-08-31T01:10:11;98502.44;;;24.54;100.00
7026;BME280;3554;42.132;24.786;2023-08-31T01:12:45;98514.50;;;24.58;100.00
7026;BME280;3554;42.132;24.786;2023-08-31T01:15:14;98514.34;;;24.51;100.00
7026;BME280;3554;42.132;24.786;2023-08-31T01:17:44;98518.69;;;24.52;100.00
7026;BME280;3554;42.132;24.786;2023-08-31T01:20:15;98466.06;;;24.20;100.00
7026;BME280;3554;42.132;24.786;2023-08-31T01:22:50;98510.16;;;24.40;100.00
7026;BME280;3554;42.132;24.786;2023-08-31T01:25:20;98520.19;;;24.47;100.00
7026;BME280;3554;42.132;24.786;2023-08-31T01:27:47;98534.09;;;24.42;100.00
7026;BME280;3554;42.132;24.786;2023-08-31T01:30:14;98536.41;;;24.45;100.00
7026;BME280;3554;42.132;24.786;2023-08-31T01:32:43;98536.75;;;24.50;100.00
7026;BME280;3554;42.132;24.786;2023-08-31T01:35:14;98542.09;;;24.50;100.00
7026;BME280;3554;42.132;24.786;2023-08-31T01:37:45;98544.81;;;24.42;100.00
7026;BME280;3554;42.132;24.786;2023-08-31T01:40:17;98539.75;;;24.39;100.00
7026;BME280;3554;42.132;24.786;2023-08-31T01:42:48;98542.25;;;24.40;100.00
7026;BME280;3554;42.132;24.786;2023-08-31T01:45:18;98547.81;;;24.31;100.00
7026;BME280;3554;42.132;24.786;2023-08-31T01:47:46;98526.22;;;24.24;100.00
7026;BME280;3554;42.132;24.786;2023-08-31T01:50:13;98552.47;;;24.37;100.00
7026;BME280;3554;42.132;24.786;2023-08-31T01:52:39;98550.66;;;24.29;100.00
7026;BME280;3554;42.132;24.786;2023-08-31T01:55:07;98543.97;;;24.25;100.00
7026;BME280;3554;42.132;24.786;2023-08-31T01:57:34;98558.50;;;24.23;100.00
7026;BME280;3554;42.132;24.786;2023-08-31T02:00:02;98556.00;;;24.21;100.00
7026;BME280;3554;42.132;24.786;2023-08-31T02:02:31;98557.00;;;24.20;100.00
7026;BME280;3554;42.132;24.786;2023-08-31T02:04:58;98559.84;;;24.11;100.00
7026;BME280;3554;42.132;24.786;2023-08-31T02:07:27;98567.53;;;24.14;100.00
7026;BME280;3554;42.132;24.786;2023-08-31T02:09:54;98565.03;;;24.12;100.00
7026;BME280;3554;42.132;24.786;2023-08-31T02:12:21;98572.56;;;24.17;100.00
7026;BME280;3554;42.132;24.786;2023-08-31T02:14:48;98575.25;;;24.17;100.00
7026;BME280;3554;42.132;24.786;2023-08-31T02:17:16;98562.34;;;24.12;100.00
7026;BME280;3554;42.132;24.786;2023-08-31T02:19:43;98571.88;;;24.23;100.00
7026;BME280;3554;42.132;24.786;2023-08-31T02:22:10;98536.78;;;24.02;100.00
7026;BME280;3554;42.132;24.786;2023-08-31T02:24:37;98582.25;;;24.26;100.00
7026;BME280;3554;42.132;24.786;2023-08-31T02:27:04;98582.75;;;24.29;100.00
7026;BME280;3554;42.132;24.786;2023-08-31T02:29:31;98583.25;;;24.33;100.00
7026;BME280;3554;42.132;24.786;2023-08-31T02:31:58;98572.72;;;24.31;100.00
7026;BME280;3554;42.132;24.786;2023-08-31T02:34:26;98576.06;;;24.25;100.00
7026;BME280;3554;42.132;24.786;2023-08-31T02:36:53;98588.25;;;24.20;100.00
7026;BME280;3554;42.132;24.786;2023-08-31T02:39:20;98584.94;;;24.26;100.00
7026;BME280;3554;42.132;24.786;2023-08-31T02:41:47;98584.75;;;24.19;100.00
7026;BME280;3554;42.132;24.786;2023-08-31T02:44:14;98581.91;;;24.29;100.00
7026;BME280;3554;42.132;24.786;2023-08-31T02:46:40;98583.06;;;24.26;100.00
7026;BME280;3554;42.132;24.786;2023-08-31T02:49:07;98591.63;;;24.22;100.00
7026;BME280;3554;42.132;24.786;2023-08-31T02:51:35;98599.31;;;24.17;100.00
7026;BME280;3554;42.132;24.786;2023-08-31T02:54:02;98602.78;;;24.17;100.00
7026;BME280;3554;42.132;24.786;2023-08-31T02:56:30;98606.66;;;24.15;100.00
7026;BME280;3554;42.132;24.786;2023-08-31T02:58:56;98611.00;;;24.08;100.00
7026;BME280;3554;42.132;24.786;2023-08-31T03:01:23;98607.63;;;24.14;100.00
7026;BME280;3554;42.132;24.786;2023-08-31T03:03:50;98603.16;;;24.06;100.00
7026;BME280;3554;42.132;24.786;2023-08-31T03:06:17;98611.31;;;24.05;100.00
7026;BME280;3554;42.132;24.786;2023-08-31T03:08:45;98617.16;;;24.00;100.00
7026;BME280;3554;42.132;24.786;2023-08-31T03:11:12;98620.97;;;23.98;100.00
7026;BME280;3554;42.132;24.786;2023-08-31T03:13:41;98624.03;;;24.03;100.00
7026;BME280;3554;42.132;24.786;2023-08-31T03:16:08;98619.00;;;24.00;100.00
7026;BME280;3554;42.132;24.786;2023-08-31T03:18:35;98619.31;;;23.97;100.00
7026;BME280;3554;42.132;24.786;2023-08-31T03:21:02;98621.97;;;23.89;100.00
7026;BME280;3554;42.132;24.786;2023-08-31T03:23:29;98618.75;;;23.85;100.00
7026;BME280;3554;42.132;24.786;2023-08-31T03:25:57;98612.56;;;23.77;100.00
7026;BME280;3554;42.132;24.786;2023-08-31T03:28:24;98616.59;;;23.73;100.00
7026;BME280;3554;42.132;24.786;2023-08-31T03:30:55;98614.06;;;23.71;100.00
7026;BME280;3554;42.132;24.786;2023-08-31T03:33:22;98615.22;;;23.69;100.00
7026;BME280;3554;42.132;24.786;2023-08-31T03:35:49;98612.56;;;23.69;100.00
7026;BME280;3554;42.132;24.786;2023-08-31T03:38:16;98611.53;;;23.70;100.00
7026;BME280;3554;42.132;24.786;2023-08-31T03:40:42;98606.88;;;23.64;100.00
7026;BME280;3554;42.132;24.786;2023-08-31T03:43:11;98609.53;;;23.64;100.00
7026;BME280;3554;42.132;24.786;2023-08-31T03:45:38;98611.06;;;23.74;100.00
7026;BME280;3554;42.132;24.786;2023-08-31T03:48:05;98611.88;;;23.67;100.00
7026;BME280;3554;42.132;24.786;2023-08-31T03:50:32;98615.88;;;23.55;100.00
7026;BME280;3554;42.132;24.786;2023-08-31T03:52:58;98624.50;;;23.49;100.00
7026;BME280;3554;42.132;24.786;2023-08-31T03:55:25;98625.06;;;23.60;100.00
7026;BME280;3554;42.132;24.786;2023-08-31T03:57:52;98626.91;;;23.68;100.00
7026;BME280;3554;42.132;24.786;2023-08-31T04:00:20;98623.41;;;23.67;100.00
7026;BME280;3554;42.132;24.786;2023-08-31T04:02:47;98602.84;;;23.68;100.00
7026;BME280;3554;42.132;24.786;2023-08-31T04:05:14;98651.94;;;24.00;100.00
7026;BME280;3554;42.132;24.786;2023-08-31T04:07:41;98660.81;;;24.25;100.00
7026;BME280;3554;42.132;24.786;2023-08-31T04:10:08;98647.09;;;24.28;100.00
7026;BME280;3554;42.132;24.786;2023-08-31T04:12:35;98660.69;;;24.34;100.00
7026;BME280;3554;42.132;24.786;2023-08-31T04:15:02;98656.69;;;24.55;100.00
7026;BME280;3554;42.132;24.786;2023-08-31T04:17:31;98667.19;;;24.64;100.00
7026;BME280;3554;42.132;24.786;2023-08-31T04:19:58;98671.38;;;24.91;100.00
7026;BME280;3554;42.132;24.786;2023-08-31T04:22:25;98682.44;;;24.80;100.00
7026;BME280;3554;42.132;24.786;2023-08-31T04:24:52;98689.63;;;24.87;100.00
7026;BME280;3554;42.132;24.786;2023-08-31T04:27:19;98696.00;;;24.86;100.00
7026;BME280;3554;42.132;24.786;2023-08-31T04:29:46;98702.03;;;24.96;100.00
7026;BME280;3554;42.132;24.786;2023-08-31T04:32:13;98703.66;;;25.21;100.00
7026;BME280;3554;42.132;24.786;2023-08-31T04:34:42;98703.13;;;25.42;100.00
7026;BME280;3554;42.132;24.786;2023-08-31T04:37:08;98705.94;;;25.57;100.00
7026;BME280;3554;42.132;24.786;2023-08-31T04:39:35;98707.38;;;25.75;100.00
7026;BME280;3554;42.132;24.786;2023-08-31T04:42:02;98701.78;;;25.93;100.00
7026;BME280;3554;42.132;24.786;2023-08-31T04:44:29;98704.69;;;26.22;100.00
7026;BME280;3554;42.132;24.786;2023-08-31T04:46:56;98716.97;;;26.39;100.00
7026;BME280;3554;42.132;24.786;2023-08-31T04:49:22;98710.81;;;26.30;100.00
7026;BME280;3554;42.132;24.786;2023-08-31T04:51:50;98715.03;;;26.25;100.00
7026;BME280;3554;42.132;24.786;2023-08-31T04:54:17;98727.69;;;26.62;100.00
7026;BME280;3554;42.132;24.786;2023-08-31T04:56:44;98718.59;;;26.71;100.00
7026;BME280;3554;42.132;24.786;2023-08-31T04:59:11;98732.38;;;26.90;100.00
7026;BME280;3554;42.132;24.786;2023-08-31T05:01:38;98734.63;;;27.01;100.00
7026;BME280;3554;42.132;24.786;2023-08-31T05:04:05;98731.25;;;27.22;100.00
7026;BME280;3554;42.132;24.786;2023-08-31T05:06:32;98741.25;;;27.51;100.00
7026;BME280;3554;42.132;24.786;2023-08-31T05:09:00;98738.38;;;27.67;100.00
7026;BME280;3554;42.132;24.786;2023-08-31T05:11:29;98741.44;;;27.64;100.00
7026;BME280;3554;42.132;24.786;2023-08-31T05:13:56;98740.22;;;27.52;100.00
7026;BME280;3554;42.132;24.786;2023-08-31T05:16:22;98732.06;;;27.30;100.00
7026;BME280;3554;42.132;24.786;2023-08-31T05:18:49;98738.84;;;27.18;100.00
7026;BME280;3554;42.132;24.786;2023-08-31T05:21:16;98737.72;;;27.35;100.00
7026;BME280;3554;42.132;24.786;2023-08-31T05:23:43;98734.47;;;27.40;100.00
7026;BME280;3554;42.132;24.786;2023-08-31T05:26:11;98744.84;;;27.58;100.00
7026;BME280;3554;42.132;24.786;2023-08-31T05:28:39;98741.34;;;27.42;100.00
7026;BME280;3554;42.132;24.786;2023-08-31T05:31:06;98735.50;;;27.39;100.00
7026;BME280;3554;42.132;24.786;2023-08-31T05:33:32;98740.13;;;27.30;100.00
7026;BME280;3554;42.132;24.786;2023-08-31T05:36:01;98729.13;;;27.17;100.00
7026;BME280;3554;42.132;24.786;2023-08-31T05:38:29;98730.84;;;27.48;100.00
7026;BME280;3554;42.132;24.786;2023-08-31T05:41:03;98742.94;;;27.52;100.00
7026;BME280;3554;42.132;24.786;2023-08-31T05:43:32;98739.19;;;27.53;100.00
7026;BME280;3554;42.132;24.786;2023-08-31T05:45:59;98746.81;;;27.64;100.00
7026;BME280;3554;42.132;24.786;2023-08-31T05:48:26;98742.94;;;27.29;100.00
7026;BME280;3554;42.132;24.786;2023-08-31T05:50:53;98748.75;;;27.40;100.00
7026;BME280;3554;42.132;24.786;2023-08-31T05:53:20;98744.41;;;27.39;100.00
7026;BME280;3554;42.132;24.786;2023-08-31T05:55:47;98744.84;;;27.58;100.00
7026;BME280;3554;42.132;24.786;2023-08-31T05:58:14;98734.69;;;27.68;100.00
7026;BME280;3554;42.132;24.786;2023-08-31T06:00:42;98754.31;;;27.68;100.00
7026;BME280;3554;42.132;24.786;2023-08-31T06:03:09;98751.28;;;27.86;100.00
7026;BME280;3554;42.132;24.786;2023-08-31T06:05:36;98751.56;;;27.91;100.00
7026;BME280;3554;42.132;24.786;2023-08-31T06:08:04;98745.50;;;27.60;100.00
7026;BME280;3554;42.132;24.786;2023-08-31T06:10:31;98751.41;;;27.92;100.00
7026;BME280;3554;42.132;24.786;2023-08-31T06:12:57;98753.56;;;28.18;100.00
7026;BME280;3554;42.132;24.786;2023-08-31T06:15:24;98757.75;;;28.20;98.63
7026;BME280;3554;42.132;24.786;2023-08-31T06:17:52;98754.06;;;28.07;99.07
7026;BME280;3554;42.132;24.786;2023-08-31T06:20:19;98763.16;;;28.06;97.84
7026;BME280;3554;42.132;24.786;2023-08-31T06:22:48;98764.63;;;28.23;96.02
7026;BME280;3554;42.132;24.786;2023-08-31T06:25:15;98756.56;;;28.08;95.36
7026;BME280;3554;42.132;24.786;2023-08-31T06:27:44;98767.34;;;27.94;96.68
7026;BME280;3554;42.132;24.786;2023-08-31T06:30:11;98764.00;;;28.06;97.40
7026;BME280;3554;42.132;24.786;2023-08-31T06:32:42;98768.19;;;28.09;98.14
7026;BME280;3554;42.132;24.786;2023-08-31T06:35:10;98754.63;;;28.02;97.34
7026;BME280;3554;42.132;24.786;2023-08-31T06:37:37;98773.19;;;28.47;96.55
7026;BME280;3554;42.132;24.786;2023-08-31T06:40:05;98777.09;;;28.45;93.12
7026;BME280;3554;42.132;24.786;2023-08-31T06:42:33;98780.38;;;28.40;93.28
7026;BME280;3554;42.132;24.786;2023-08-31T06:45:00;98768.75;;;28.40;94.33
7026;BME280;3554;42.132;24.786;2023-08-31T06:47:27;98771.16;;;28.49;93.39
7026;BME280;3554;42.132;24.786;2023-08-31T06:49:54;98776.69;;;28.63;94.20
7026;BME280;3554;42.132;24.786;2023-08-31T06:52:22;98780.50;;;28.68;93.44
7026;BME280;3554;42.132;24.786;2023-08-31T06:54:49;98782.44;;;28.95;91.71
7026;BME280;3554;42.132;24.786;2023-08-31T06:57:20;98779.50;;;28.90;90.53
7026;BME280;3554;42.132;24.786;2023-08-31T06:59:47;98786.22;;;29.01;89.75
7026;BME280;3554;42.132;24.786;2023-08-31T07:02:14;98792.19;;;28.96;90.74
7026;BME280;3554;42.132;24.786;2023-08-31T07:04:41;98800.59;;;29.29;88.56
7026;BME280;3554;42.132;24.786;2023-08-31T07:07:08;98794.91;;;29.38;88.03
7026;BME280;3554;42.132;24.786;2023-08-31T07:09:37;98803.47;;;29.48;87.94
7026;BME280;3554;42.132;24.786;2023-08-31T07:12:06;98802.97;;;29.66;86.78
7026;BME280;3554;42.132;24.786;2023-08-31T07:14:32;98798.47;;;29.73;86.56
7026;BME280;3554;42.132;24.786;2023-08-31T07:16:59;98778.34;;;29.69;86.01
7026;BME280;3554;42.132;24.786;2023-08-31T07:19:28;98793.00;;;29.39;84.87
7026;BME280;3554;42.132;24.786;2023-08-31T07:21:54;98787.19;;;29.14;87.91
7026;BME280;3554;42.132;24.786;2023-08-31T07:24:22;98789.91;;;29.14;89.03
7026;BME280;3554;42.132;24.786;2023-08-31T07:26:50;98795.47;;;29.34;89.01
7026;BME280;3554;42.132;24.786;2023-08-31T07:29:17;98793.59;;;29.62;87.93
7026;BME280;3554;42.132;24.786;2023-08-31T07:31:44;98799.53;;;29.72;86.02
7026;BME280;3554;42.132;24.786;2023-08-31T07:34:10;98795.34;;;29.70;85.44
7026;BME280;3554;42.132;24.786;2023-08-31T07:36:37;98802.25;;;29.51;82.70
7026;BME280;3554;42.132;24.786;2023-08-31T07:39:05;98787.63;;;29.67;85.08
7026;BME280;3554;42.132;24.786;2023-08-31T07:41:32;98791.50;;;29.58;85.98
7026;BME280;3554;42.132;24.786;2023-08-31T07:44:00;98783.97;;;29.74;84.74
7026;BME280;3554;42.132;24.786;2023-08-31T07:46:28;98790.03;;;29.83;84.06
7026;BME280;3554;42.132;24.786;2023-08-31T07:48:55;98786.38;;;29.90;86.51
7026;BME280;3554;42.132;24.786;2023-08-31T07:51:22;98782.25;;;30.35;82.31
7026;BME280;3554;42.132;24.786;2023-08-31T07:53:49;98784.97;;;30.41;82.41
7026;BME280;3554;42.132;24.786;2023-08-31T07:56:16;98786.91;;;30.61;80.13
7026;BME280;3554;42.132;24.786;2023-08-31T07:58:44;98776.00;;;30.34;77.44
7026;BME280;3554;42.132;24.786;2023-08-31T08:01:12;98794.53;;;30.44;77.25
7026;BME280;3554;42.132;24.786;2023-08-31T08:03:39;98792.72;;;30.64;76.75
7026;BME280;3554;42.132;24.786;2023-08-31T08:06:05;98784.47;;;30.25;78.14
7026;BME280;3554;42.132;24.786;2023-08-31T08:08:32;98783.00;;;30.22;75.09
7026;BME280;3554;42.132;24.786;2023-08-31T08:10:59;98782.75;;;30.58;75.69
7026;BME280;3554;42.132;24.786;2023-08-31T08:13:28;98739.00;;;30.28;72.52
7026;BME280;3554;42.132;24.786;2023-08-31T08:15:54;98780.91;;;30.65;73.36
7026;BME280;3554;42.132;24.786;2023-08-31T08:18:23;98780.44;;;30.48;72.71
7026;BME280;3554;42.132;24.786;2023-08-31T08:20:50;98786.97;;;30.80;74.48
7026;BME280;3554;42.132;24.786;2023-08-31T08:23:17;98786.09;;;30.73;70.63
7026;BME280;3554;42.132;24.786;2023-08-31T08:25:44;98775.28;;;30.73;72.95
7026;BME280;3554;42.132;24.786;2023-08-31T08:28:11;98775.16;;;30.94;71.65
7026;BME280;3554;42.132;24.786;2023-08-31T08:30:37;98766.81;;;30.89;69.23
7026;BME280;3554;42.132;24.786;2023-08-31T08:33:04;98768.53;;;31.16;71.75
7026;BME280;3554;42.132;24.786;2023-08-31T08:35:32;98766.44;;;31.31;72.32
7026;BME280;3554;42.132;24.786;2023-08-31T08:37:59;98772.91;;;31.57;67.00
7026;BME280;3554;42.132;24.786;2023-08-31T08:40:26;98768.31;;;31.70;65.67
7026;BME280;3554;42.132;24.786;2023-08-31T08:42:53;98766.63;;;31.95;66.29
7026;BME280;3554;42.132;24.786;2023-08-31T08:45:24;98781.41;;;31.73;64.41
7026;BME280;3554;42.132;24.786;2023-08-31T08:47:52;98764.97;;;31.68;63.84
7026;BME280;3554;42.132;24.786;2023-08-31T08:50:20;98773.50;;;31.72;63.03
7026;BME280;3554;42.132;24.786;2023-08-31T08:52:50;98723.56;;;31.54;62.23
7026;BME280;3554;42.132;24.786;2023-08-31T08:55:18;98776.59;;;32.01;61.94
7026;BME280;3554;42.132;24.786;2023-08-31T08:57:47;98759.25;;;32.15;61.40
7026;BME280;3554;42.132;24.786;2023-08-31T09:00:14;98762.94;;;32.34;62.16
7026;BME280;3554;42.132;24.786;2023-08-31T09:02:41;98779.56;;;32.44;58.75
7026;BME280;3554;42.132;24.786;2023-08-31T09:05:08;98776.97;;;32.18;58.18
7026;BME280;3554;42.132;24.786;2023-08-31T09:07:35;98755.97;;;31.94;57.16
7026;BME280;3554;42.132;24.786;2023-08-31T09:10:05;98777.63;;;32.07;60.51
7026;BME280;3554;42.132;24.786;2023-08-31T09:12:36;98769.53;;;32.00;58.93
7026;BME280;3554;42.132;24.786;2023-08-31T09:15:05;98767.44;;;31.83;58.17
7026;BME280;3554;42.132;24.786;2023-08-31T09:17:38;98753.13;;;31.56;61.96
7026;BME280;3554;42.132;24.786;2023-08-31T09:20:07;98772.44;;;31.73;61.07
7026;BME280;3554;42.132;24.786;2023-08-31T09:22:34;98769.94;;;31.84;61.11
7026;BME280;3554;42.132;24.786;2023-08-31T09:25:01;98773.69;;;31.77;55.02
7026;BME280;3554;42.132;24.786;2023-08-31T09:27:30;98763.75;;;31.18;55.52
7026;BME280;3554;42.132;24.786;2023-08-31T09:29:58;98770.31;;;30.77;57.85
7026;BME280;3554;42.132;24.786;2023-08-31T09:32:25;98772.88;;;30.91;58.33
7026;BME280;3554;42.132;24.786;2023-08-31T09:34:52;98757.09;;;31.53;62.44
7026;BME280;3554;42.132;24.786;2023-08-31T09:37:19;98761.97;;;32.09;58.22
7026;BME280;3554;42.132;24.786;2023-08-31T09:39:45;98762.19;;;32.65;57.17
7026;BME280;3554;42.132;24.786;2023-08-31T09:42:12;98773.97;;;33.14;52.29
7026;BME280;3554;42.132;24.786;2023-08-31T09:44:44;98769.00;;;33.36;48.30
7026;BME280;3554;42.132;24.786;2023-08-31T09:47:13;98769.03;;;33.29;51.42
7026;BME280;3554;42.132;24.786;2023-08-31T09:49:41;98774.47;;;33.29;48.78
7026;BME280;3554;42.132;24.786;2023-08-31T09:52:09;98772.94;;;32.78;48.33
7026;BME280;3554;42.132;24.786;2023-08-31T09:54:38;98765.38;;;33.17;50.44
7026;BME280;3554;42.132;24.786;2023-08-31T09:57:05;98762.75;;;33.29;50.77
7026;BME280;3554;42.132;24.786;2023-08-31T10:02:19;98768.72;;;33.44;48.14
7026;BME280;3554;42.132;24.786;2023-08-31T10:04:46;98764.13;;;33.87;46.98
7026;BME280;3554;42.132;24.786;2023-08-31T10:07:21;98768.91;;;34.28;48.33
7026;BME280;3554;42.132;24.786;2023-08-31T10:09:48;98772.13;;;34.36;48.11
7026;BME280;3554;42.132;24.786;2023-08-31T10:12:16;98770.28;;;34.67;46.97
7026;BME280;3554;42.132;24.786;2023-08-31T10:14:44;98772.69;;;32.86;46.48
7026;BME280;3554;42.132;24.786;2023-08-31T10:17:14;98761.28;;;32.77;51.36
7026;BME280;3554;42.132;24.786;2023-08-31T10:19:42;98760.91;;;32.67;51.44
7026;BME280;3554;42.132;24.786;2023-08-31T10:22:09;98764.06;;;32.64;49.61
7026;BME280;3554;42.132;24.786;2023-08-31T10:24:58;98764.78;;;32.84;50.53
7026;BME280;3554;42.132;24.786;2023-08-31T10:27:25;98760.34;;;33.21;52.73
7026;BME280;3554;42.132;24.786;2023-08-31T10:29:52;98769.00;;;33.61;50.42
7026;BME280;3554;42.132;24.786;2023-08-31T10:32:19;98767.56;;;33.58;46.55
7026;BME280;3554;42.132;24.786;2023-08-31T10:35:06;98756.63;;;33.40;46.53
7026;BME280;3554;42.132;24.786;2023-08-31T10:37:34;98766.56;;;33.52;50.95
7026;BME280;3554;42.132;24.786;2023-08-31T10:40:07;98760.28;;;33.77;50.60
7026;BME280;3554;42.132;24.786;2023-08-31T10:42:44;98760.00;;;33.11;47.71
7026;BME280;3554;42.132;24.786;2023-08-31T10:45:11;98754.91;;;32.59;48.64
7026;BME280;3554;42.132;24.786;2023-08-31T10:47:38;98761.63;;;32.49;49.84
7026;BME280;3554;42.132;24.786;2023-08-31T10:50:18;98760.25;;;32.72;52.42
7026;BME280;3554;42.132;24.786;2023-08-31T10:52:45;98765.00;;;32.76;50.46
7026;BME280;3554;42.132;24.786;2023-08-31T10:55:12;98766.78;;;32.95;53.71
7026;BME280;3554;42.132;24.786;2023-08-31T10:57:40;98765.38;;;33.17;50.69
7026;BME280;3554;42.132;24.786;2023-08-31T11:00:08;98772.34;;;33.31;47.66
7026;BME280;3554;42.132;24.786;2023-08-31T11:02:37;98770.09;;;33.28;47.95
7026;BME280;3554;42.132;24.786;2023-08-31T11:05:08;98766.19;;;32.93;49.40
7026;BME280;3554;42.132;24.786;2023-08-31T11:07:37;98770.38;;;32.89;49.32
7026;BME280;3554;42.132;24.786;2023-08-31T11:10:13;98775.06;;;33.07;49.18
7026;BME280;3554;42.132;24.786;2023-08-31T11:12:41;98780.94;;;33.28;49.12
7026;BME280;3554;42.132;24.786;2023-08-31T11:15:11;98769.97;;;33.41;47.22
7026;BME280;3554;42.132;24.786;2023-08-31T11:17:39;98747.22;;;33.18;48.81
7026;BME280;3554;42.132;24.786;2023-08-31T11:20:07;98763.22;;;33.01;49.68
7026;BME280;3554;42.132;24.786;2023-08-31T11:22:38;98762.44;;;32.88;50.17
7026;BME280;3554;42.132;24.786;2023-08-31T11:25:07;98760.81;;;33.11;51.08
7026;BME280;3554;42.132;24.786;2023-08-31T11:27:34;98758.03;;;33.49;47.11
7026;BME280;3554;42.132;24.786;2023-08-31T11:30:03;98753.06;;;33.46;46.81
7026;BME280;3554;42.132;24.786;2023-08-31T11:32:30;98751.19;;;33.40;47.62
7026;BME280;3554;42.132;24.786;2023-08-31T11:34:56;98759.09;;;33.23;49.31
7026;BME280;3554;42.132;24.786;2023-08-31T11:37:23;98745.31;;;33.18;51.57
7026;BME280;3554;42.132;24.786;2023-08-31T11:39:53;98736.03;;;32.77;51.83
7026;BME280;3554;42.132;24.786;2023-08-31T11:42:21;98729.91;;;32.88;52.61
7026;BME280;3554;42.132;24.786;2023-08-31T11:44:49;98738.38;;;32.67;50.13
7026;BME280;3554;42.132;24.786;2023-08-31T11:47:17;98733.94;;;32.79;53.13
7026;BME280;3554;42.132;24.786;2023-08-31T11:49:45;98737.94;;;32.70;54.11
7026;BME280;3554;42.132;24.786;2023-08-31T11:52:13;98717.25;;;32.75;54.94
7026;BME280;3554;42.132;24.786;2023-08-31T11:54:41;98733.47;;;32.82;51.55
7026;BME280;3554;42.132;24.786;2023-08-31T11:57:10;98721.34;;;32.53;53.80
7026;BME280;3554;42.132;24.786;2023-08-31T11:59:38;98725.38;;;32.44;58.50
7026;BME280;3554;42.132;24.786;2023-08-31T12:02:06;98687.66;;;32.36;59.26
7026;BME280;3554;42.132;24.786;2023-08-31T12:04:33;98731.06;;;32.74;57.19
7026;BME280;3554;42.132;24.786;2023-08-31T12:07:08;98726.94;;;32.65;57.40
7026;BME280;3554;42.132;24.786;2023-08-31T12:09:35;98726.38;;;32.49;59.54
7026;BME280;3554;42.132;24.786;2023-08-31T12:12:02;98724.38;;;32.32;57.24
7026;BME280;3554;42.132;24.786;2023-08-31T12:14:31;98730.59;;;32.39;58.98
7026;BME280;3554;42.132;24.786;2023-08-31T12:17:01;98729.84;;;32.63;56.18
7026;BME280;3554;42.132;24.786;2023-08-31T12:19:29;98728.41;;;32.61;57.29
7026;BME280;3554;42.132;24.786;2023-08-31T12:21:56;98729.44;;;32.60;53.70
7026;BME280;3554;42.132;24.786;2023-08-31T12:24:23;98717.06;;;32.70;54.45
7026;BME280;3554;42.132;24.786;2023-08-31T12:26:51;98701.59;;;32.46;53.22
7026;BME280;3554;42.132;24.786;2023-08-31T12:29:19;98722.22;;;32.47;51.36
7026;BME280;3554;42.132;24.786;2023-08-31T12:31:48;98714.94;;;32.47;51.46
7026;BME280;3554;42.132;24.786;2023-08-31T12:34:15;98724.72;;;32.80;52.86
7026;BME280;3554;42.132;24.786;2023-08-31T12:36:42;98725.91;;;32.97;51.58
7026;BME280;3554;42.132;24.786;2023-08-31T12:39:09;98725.31;;;33.13;50.08
7026;BME280;3554;42.132;24.786;2023-08-31T12:41:37;98729.50;;;32.84;51.08
7026;BME280;3554;42.132;24.786;2023-08-31T12:44:05;98722.25;;;32.78;53.67
7026;BME280;3554;42.132;24.786;2023-08-31T12:46:32;98717.09;;;33.01;52.49
7026;BME280;3554;42.132;24.786;2023-08-31T12:49:00;98713.66;;;32.81;54.11
7026;BME280;3554;42.132;24.786;2023-08-31T12:51:29;98715.81;;;32.73;53.84
7026;BME280;3554;42.132;24.786;2023-08-31T12:53:56;98716.56;;;32.55;51.66
7026;BME280;3554;42.132;24.786;2023-08-31T12:56:23;98706.78;;;32.54;52.46
7026;BME280;3554;42.132;24.786;2023-08-31T12:58:50;98692.72;;;32.64;51.89
7026;BME280;3554;42.132;24.786;2023-08-31T13:01:18;98691.09;;;32.87;52.28
7026;BME280;3554;42.132;24.786;2023-08-31T13:03:46;98687.31;;;33.19;51.09
7026;BME280;3554;42.132;24.786;2023-08-31T13:06:15;98698.81;;;33.39;49.46
7026;BME280;3554;42.132;24.786;2023-08-31T13:08:44;98679.81;;;33.39;49.62
7026;BME280;3554;42.132;24.786;2023-08-31T13:11:11;98698.69;;;33.52;48.62